Time;durP1;ratioP1;P1;durP2;ratioP2;P2;SDS_P1;SDS_P2;PMS_P1;PMS_P2;Temp;Humidity;BMP_temperature;BMP_pressure;BME280_temperature;BME280_humidity;BME280_pressure;Samples;Min_cycle;Max_cycle;Signal;HPM_P1;HPM_P2
2023/07/18 00:00:43;;;;;;;3.17;1.02;;;;;;;13.67;100.00;101031.78;5023429;28;20052;-64
2023/07/18 00:03:12;;;;;;;2.55;0.90;;;;;;;13.69;100.00;101022.03;5032893;28;20547;-64
2023/07/18 00:05:40;;;;;;;4.10;1.25;;;;;;;13.54;100.00;101009.56;5032162;28;20046;-64
2023/07/18 00:08:08;;;;;;;3.90;0.90;;;;;;;13.70;100.00;101026.34;5031855;28;20056;-64
2023/07/18 00:10:35;;;;;;;5.38;1.35;;;;;;;13.66;100.00;101022.16;5032073;28;20053;-64
2023/07/18 00:13:02;;;;;;;2.28;1.00;;;;;;;13.64;100.00;101021.38;5031454;28;20132;-64
2023/07/18 00:15:29;;;;;;;4.63;1.13;;;;;;;13.71;100.00;101046.50;5032876;28;20398;-64
2023/07/18 00:17:56;;;;;;;1.88;0.80;;;;;;;13.65;100.00;101026.59;5000755;28;20048;-64
2023/07/18 00:20:23;;;;;;;2.88;1.15;;;;;;;13.69;100.00;101027.28;5021582;28;20056;-64
2023/07/18 00:22:50;;;;;;;6.97;1.30;;;;;;;13.75;100.00;101026.16;5025494;28;20781;-64
2023/07/18 00:25:19;;;;;;;3.67;1.00;;;;;;;13.78;100.00;101036.53;5019783;28;20474;-64
2023/07/18 00:27:49;;;;;;;4.43;0.90;;;;;;;13.61;100.00;101037.31;5013838;28;20054;-64
2023/07/18 00:30:17;;;;;;;6.53;1.33;;;;;;;13.43;100.00;101036.38;5032056;28;20473;-64
2023/07/18 00:32:45;;;;;;;4.53;1.35;;;;;;;13.40;100.00;101034.75;5032488;28;20059;-64
2023/07/18 00:35:13;;;;;;;8.63;1.00;;;;;;;13.33;100.00;101022.75;5031605;28;20045;-64
2023/07/18 00:37:41;;;;;;;3.95;1.00;;;;;;;13.30;100.00;101026.34;5031121;28;20049;-64
2023/07/18 00:40:11;;;;;;;5.00;1.20;;;;;;;13.39;100.00;101040.06;5029150;28;20049;-64
2023/07/18 00:42:38;;;;;;;5.85;1.10;;;;;;;13.45;100.00;101038.00;5031529;28;20458;-64
2023/07/18 00:45:07;;;;;;;4.30;1.20;;;;;;;13.36;100.00;101032.31;5031595;28;20055;-64
2023/07/18 00:47:40;;;;;;;4.20;0.93;;;;;;;13.34;100.00;101032.38;5025084;28;20061;-64
2023/07/18 00:50:09;;;;;;;3.25;1.10;;;;;;;13.29;100.00;101023.78;5026904;28;20052;-64
2023/07/18 00:52:43;;;;;;;3.90;1.25;;;;;;;13.34;100.00;101036.78;5032077;28;20053;-65
2023/07/18 00:55:11;;;;;;;4.30;1.23;;;;;;;13.17;100.00;101022.53;5030580;28;20053;-64
2023/07/18 00:57:39;;;;;;;2.20;1.00;;;;;;;13.01;100.00;101027.63;5031286;28;20123;-64
2023/07/18 01:00:11;;;;;;;2.13;0.90;;;;;;;12.88;100.00;101027.28;5024950;28;20046;-64
2023/07/18 01:02:40;;;;;;;5.45;1.30;;;;;;;12.75;100.00;101030.50;5030825;28;20053;-64
2023/07/18 01:05:16;;;;;;;5.30;1.27;;;;;;;12.66;100.00;101034.38;5035286;28;20075;-64
2023/07/18 01:07:44;;;;;;;6.15;1.77;;;;;;;12.61;100.00;101031.94;5031323;28;20463;-64
2023/07/18 01:10:25;;;;;;;4.15;1.20;;;;;;;12.59;100.00;101022.41;5022045;28;20482;-63
2023/07/18 01:13:00;;;;;;;5.88;1.25;;;;;;;12.68;100.00;101032.56;5028721;28;20137;-64
2023/07/18 01:15:29;;;;;;;4.85;1.20;;;;;;;12.49;100.00;101032.44;5030651;28;20616;-64
2023/07/18 01:17:56;;;;;;;2.72;0.95;;;;;;;12.54;100.00;101031.34;5013358;28;20084;-64
2023/07/18 01:20:27;;;;;;;3.40;1.23;;;;;;;12.71;100.00;101032.41;5021091;28;20050;-64
2023/07/18 01:23:05;;;;;;;3.83;1.17;;;;;;;12.91;100.00;101028.97;5027581;28;20057;-64
2023/07/18 01:25:34;;;;;;;3.47;1.00;;;;;;;12.97;100.00;101027.84;5030533;28;20049;-64
2023/07/18 01:28:01;;;;;;;10.77;2.42;;;;;;;13.01;100.00;101032.03;5029857;28;20053;-64
2023/07/18 01:30:28;;;;;;;5.53;1.20;;;;;;;12.99;100.00;101041.75;5012448;28;20061;-64
2023/07/18 01:32:54;;;;;;;5.47;1.30;;;;;;;12.90;100.00;101032.50;5013258;28;20056;-64
2023/07/18 01:35:25;;;;;;;4.90;1.23;;;;;;;12.89;100.00;101036.03;5030793;28;20475;-64
2023/07/18 01:37:54;;;;;;;5.53;1.38;;;;;;;12.77;100.00;101034.78;5030305;28;20132;-64
2023/07/18 01:40:21;;;;;;;2.63;0.95;;;;;;;12.73;100.00;101039.31;5027111;28;20084;-64
2023/07/18 01:42:51;;;;;;;7.57;1.45;;;;;;;12.79;100.00;101040.81;5030299;28;20392;-64
2023/07/18 01:45:19;;;;;;;4.63;1.20;;;;;;;12.66;100.00;101031.72;5029335;28;20053;-64
2023/07/18 01:47:48;;;;;;;4.70;1.10;;;;;;;12.71;100.00;101032.41;5030298;28;20517;-64
2023/07/18 01:50:15;;;;;;;3.25;1.05;;;;;;;12.67;100.00;101030.84;5024428;28;20053;-64
2023/07/18 01:52:42;;;;;;;4.38;1.13;;;;;;;12.81;100.00;101044.25;5013313;28;20057;-64
2023/07/18 01:55:09;;;;;;;4.22;1.02;;;;;;;12.78;100.00;101033.84;5029909;28;20164;-64
2023/07/18 01:57:36;;;;;;;2.65;0.93;;;;;;;12.86;100.00;101044.91;5030282;28;20057;-64
2023/07/18 02:00:04;;;;;;;2.75;1.00;;;;;;;12.83;100.00;101044.19;5022890;28;20042;-64
2023/07/18 02:02:31;;;;;;;4.00;1.10;;;;;;;12.80;100.00;101039.03;5030808;28;20089;-64
2023/07/18 02:04:58;;;;;;;4.03;1.05;;;;;;;12.81;100.00;101035.50;5017795;28;20498;-64
2023/07/18 02:07:25;;;;;;;4.65;1.13;;;;;;;12.94;100.00;101041.94;5028004;28;20041;-64
2023/07/18 02:09:52;;;;;;;2.00;1.00;;;;;;;13.03;100.00;101038.06;5024915;28;20132;-64
2023/07/18 02:12:19;;;;;;;1.83;0.90;;;;;;;13.01;100.00;101027.63;5024467;28;20395;-64
2023/07/18 02:14:46;;;;;;;2.83;1.20;;;;;;;13.04;100.00;101035.38;5012687;28;20051;-64
2023/07/18 02:17:12;;;;;;;4.43;1.10;;;;;;;12.92;100.00;101014.88;5013074;28;20075;-64
2023/07/18 02:19:40;;;;;;;3.35;1.20;;;;;;;13.08;100.00;101029.09;5029086;28;20467;-64
2023/07/18 02:22:06;;;;;;;4.18;1.13;;;;;;;13.21;100.00;101031.16;5029427;28;20116;-64
2023/07/18 02:24:33;;;;;;;3.45;1.05;;;;;;;13.07;100.00;101037.03;5029963;28;20057;-64
2023/07/18 02:27:00;;;;;;;4.20;1.13;;;;;;;12.97;100.00;101039.19;5029841;28;20041;-64
2023/07/18 02:29:27;;;;;;;3.28;1.00;;;;;;;12.87;100.00;101045.75;5029609;28;20049;-64
2023/07/18 02:31:54;;;;;;;3.78;1.08;;;;;;;12.97;100.00;101040.97;5030038;28;20053;-64
2023/07/18 02:34:22;;;;;;;3.90;1.13;;;;;;;12.91;100.00;101026.31;5017652;28;20128;-64
2023/07/18 02:36:49;;;;;;;4.13;1.02;;;;;;;12.99;100.00;101024.19;5028734;28;20049;-64
2023/07/18 02:39:15;;;;;;;3.45;1.15;;;;;;;12.98;100.00;101021.63;5011130;28;20049;-64
2023/07/18 02:41:42;;;;;;;3.33;1.00;;;;;;;13.02;100.00;101020.59;5006877;28;20132;-65
2023/07/18 02:44:10;;;;;;;3.42;1.00;;;;;;;13.05;100.00;101021.31;5029163;28;20061;-64
2023/07/18 02:46:37;;;;;;;4.03;1.13;;;;;;;13.07;100.00;101021.25;5029316;28;20057;-64
2023/07/18 02:49:04;;;;;;;2.80;1.00;;;;;;;12.92;100.00;101020.13;5029859;28;20048;-64
2023/07/18 02:51:31;;;;;;;2.95;0.90;;;;;;;13.04;100.00;101019.59;5011779;28;20049;-64
2023/07/18 02:53:58;;;;;;;9.23;1.15;;;;;;;13.13;100.00;101020.97;5030049;28;20054;-64
2023/07/18 02:56:24;;;;;;;3.40;1.08;;;;;;;13.10;100.00;101019.34;5030511;28;20407;-64
2023/07/18 02:58:51;;;;;;;2.65;0.95;;;;;;;13.27;100.00;101029.13;5012162;28;20049;-65
2023/07/18 03:01:21;;;;;;;3.42;1.10;;;;;;;13.17;100.00;101025.19;5011257;28;20053;-64
2023/07/18 03:03:47;;;;;;;3.55;1.00;;;;;;;13.04;100.00;101019.59;5030130;28;20482;-64
2023/07/18 03:06:14;;;;;;;3.03;1.00;;;;;;;13.17;100.00;101019.91;5029909;28;20064;-64
2023/07/18 03:08:41;;;;;;;3.42;1.00;;;;;;;13.19;100.00;101022.47;4997234;28;20049;-64
2023/07/18 03:11:08;;;;;;;3.08;1.30;;;;;;;13.21;100.00;101012.75;5025877;28;20053;-65
2023/07/18 03:13:36;;;;;;;2.10;0.90;;;;;;;13.26;100.00;101022.16;5029732;28;20052;-65
2023/07/18 03:16:04;;;;;;;3.70;1.00;;;;;;;13.16;100.00;101015.59;5029998;28;20061;-64
2023/07/18 03:18:31;;;;;;;4.30;0.85;;;;;;;13.24;100.00;101016.13;5028972;28;20466;-64
2023/07/18 03:20:58;;;;;;;3.58;1.10;;;;;;;13.21;100.00;101016.25;5015480;28;20060;-64
2023/07/18 03:23:28;;;;;;;2.08;0.93;;;;;;;13.28;100.00;101022.94;5029083;28;20045;-64
2023/07/18 03:25:55;;;;;;;3.03;0.98;;;;;;;13.26;100.00;101019.53;5029839;28;20049;-64
2023/07/18 03:28:21;;;;;;;3.15;1.00;;;;;;;13.24;100.00;101028.41;5029937;28;20125;-64
2023/07/18 03:30:48;;;;;;;1.50;0.80;;;;;;;13.15;100.00;101016.50;5004509;28;20058;-64
2023/07/18 03:33:15;;;;;;;2.78;1.02;;;;;;;13.15;100.00;101020.91;5022402;28;20057;-64
2023/07/18 03:35:42;;;;;;;3.05;0.90;;;;;;;13.05;100.00;101008.19;5029495;28;20462;-64
2023/07/18 03:38:08;;;;;;;3.25;0.90;;;;;;;13.06;100.00;101015.13;5029334;28;20099;-64
2023/07/18 03:40:35;;;;;;;3.10;1.02;;;;;;;13.13;100.00;101017.50;5032344;28;20430;-65
2023/07/18 03:43:03;;;;;;;3.30;1.10;;;;;;;13.18;100.00;101021.63;5028748;28;20145;-64
2023/07/18 03:45:30;;;;;;;1.98;0.80;;;;;;;13.02;100.00;101010.09;5032758;28;20541;-64
2023/07/18 03:47:57;;;;;;;3.28;0.93;;;;;;;13.13;100.00;101020.13;5015551;28;20045;-65
2023/07/18 03:50:24;;;;;;;1.98;0.80;;;;;;;13.03;100.00;101017.03;5031181;28;20052;-65
2023/07/18 03:52:50;;;;;;;3.53;1.10;;;;;;;13.07;100.00;101023.91;5032054;28;20076;-64
2023/07/18 03:55:17;;;;;;;2.38;0.90;;;;;;;13.15;100.00;101023.56;5032284;28;20489;-65
2023/07/18 03:57:44;;;;;;;2.70;1.20;;;;;;;13.16;100.00;101023.47;5033364;28;20079;-64
2023/07/18 04:00:17;;;;;;;2.17;0.90;;;;;;;13.17;100.00;101013.81;5024141;28;20298;-64
2023/07/18 04:02:48;;;;;;;4.22;1.17;;;;;;;13.19;100.00;101028.63;5029423;28;20083;-64
2023/07/18 04:05:17;;;;;;;0.98;0.70;;;;;;;13.21;100.00;101029.41;5031753;28;20057;-64
2023/07/18 04:07:46;;;;;;;3.47;1.38;;;;;;;13.19;100.00;101036.50;5032730;28;20486;-64
2023/07/18 04:10:14;;;;;;;3.47;1.10;;;;;;;13.10;100.00;101026.38;5030753;28;20061;-64
2023/07/18 04:12:41;;;;;;;2.58;0.90;;;;;;;13.17;100.00;101033.06;5025617;28;20487;-64
2023/07/18 04:15:09;;;;;;;1.23;0.73;;;;;;;13.23;100.00;101022.28;5039212;28;20685;-64
2023/07/18 04:17:36;;;;;;;2.25;1.00;;;;;;;13.26;100.00;101029.19;5039379;28;20403;-64
2023/07/18 04:20:04;;;;;;;5.38;1.13;;;;;;;13.29;100.00;101026.41;5029506;28;20044;-64
2023/07/18 04:22:31;;;;;;;4.40;1.08;;;;;;;13.18;100.00;101029.53;5031920;28;20088;-64
2023/07/18 04:24:58;;;;;;;3.55;1.00;;;;;;;13.17;100.00;101014.66;5032117;28;20057;-64
2023/07/18 04:27:26;;;;;;;4.18;1.17;;;;;;;13.26;100.00;101019.53;5031486;28;20049;-64
2023/07/18 04:29:53;;;;;;;7.03;1.85;;;;;;;13.16;100.00;101009.50;5029040;28;20054;-64
2023/07/18 04:32:20;;;;;;;4.22;1.00;;;;;;;13.18;100.00;101018.16;5031216;28;20049;-64
2023/07/18 04:34:48;;;;;;;6.03;1.10;;;;;;;13.17;100.00;101019.91;5031807;28;20050;-64
2023/07/18 04:37:15;;;;;;;2.88;1.10;;;;;;;13.09;100.00;100999.22;5001120;28;20132;-64
2023/07/18 04:39:42;;;;;;;2.38;0.98;;;;;;;13.43;100.00;101018.78;5031376;28;20045;-64
2023/07/18 04:42:11;;;;;;;2.80;1.05;;;;;;;13.82;100.00;101015.25;5027999;28;20417;-65
2023/07/18 04:44:38;;;;;;;2.53;0.95;;;;;;;13.68;100.00;101023.78;5022761;28;20057;-64
2023/07/18 04:47:04;;;;;;;3.00;1.00;;;;;;;13.52;100.00;101022.78;5032383;28;20175;-64
2023/07/18 04:49:31;;;;;;;3.50;1.00;;;;;;;13.38;100.00;101012.88;5029718;28;20050;-64
2023/07/18 04:51:58;;;;;;;3.42;0.98;;;;;;;13.52;100.00;101028.06;5014014;28;20045;-64
2023/07/18 04:54:25;;;;;;;3.00;1.00;;;;;;;13.62;100.00;101031.13;5014449;28;20057;-64
2023/07/18 04:56:53;;;;;;;4.05;1.00;;;;;;;13.55;100.00;101020.03;5031389;28;20057;-64
2023/07/18 04:59:21;;;;;;;1.55;0.98;;;;;;;13.59;100.00;101016.31;5020905;28;20848;-64
2023/07/18 05:01:54;;;;;;;2.20;0.85;;;;;;;13.68;100.00;101012.41;5030878;28;20138;-64
2023/07/18 05:04:21;;;;;;;3.17;1.00;;;;;;;13.74;100.00;101019.16;5031432;28;20550;-64
2023/07/18 05:06:48;;;;;;;2.20;0.98;;;;;;;13.74;100.00;101016.53;5031581;28;20103;-64
2023/07/18 05:09:16;;;;;;;4.20;0.90;;;;;;;13.80;100.00;101018.91;5031578;28;20519;-64
2023/07/18 05:11:43;;;;;;;2.60;0.98;;;;;;;13.88;100.00;101019.38;5013493;28;20400;-64
2023/07/18 05:14:10;;;;;;;4.78;0.90;;;;;;;13.86;100.00;101019.47;5030803;28;20054;-64
2023/07/18 05:16:36;;;;;;;3.08;1.05;;;;;;;14.03;100.00;101021.28;5013320;28;20079;-64
2023/07/18 05:19:03;;;;;;;1.30;0.80;;;;;;;14.31;100.00;101024.41;5013176;28;20053;-64
2023/07/18 05:21:30;;;;;;;3.25;1.05;;;;;;;14.28;100.00;101024.53;5028365;28;20054;-64
2023/07/18 05:23:57;;;;;;;4.18;0.90;;;;;;;14.18;100.00;100998.66;5030959;28;20053;-64
2023/07/18 05:26:24;;;;;;;2.47;1.00;;;;;;;14.47;100.00;101017.44;5013952;28;20072;-64
2023/07/18 05:28:52;;;;;;;3.47;0.90;;;;;;;14.65;100.00;101025.41;5013563;28;20487;-64
2023/07/18 05:31:19;;;;;;;3.42;1.25;;;;;;;14.59;100.00;101023.94;5016364;28;20054;-65
2023/07/18 05:33:46;;;;;;;3.50;0.90;;;;;;;14.67;100.00;101028.81;5029965;28;20103;-64
2023/07/18 05:36:13;;;;;;;2.97;0.95;;;;;;;14.79;100.00;101033.47;5019353;28;20064;-64
2023/07/18 05:38:40;;;;;;;4.32;0.80;;;;;;;14.67;100.00;101034.09;5027622;28;20068;-64
2023/07/18 05:41:06;;;;;;;3.97;0.90;;;;;;;14.68;100.00;101035.78;5029735;28;20491;-64
2023/07/18 05:43:33;;;;;;;3.10;0.80;;;;;;;14.70;100.00;101032.16;5005117;28;20057;-64
2023/07/18 05:46:00;;;;;;;2.88;1.05;;;;;;;14.68;100.00;101030.50;5022931;28;20041;-64
2023/07/18 05:48:27;;;;;;;2.58;0.80;;;;;;;14.76;100.00;101033.63;5023769;28;20384;-64
2023/07/18 05:50:55;;;;;;;4.15;1.05;;;;;;;14.83;100.00;101040.28;5017015;28;20296;-64
2023/07/18 05:53:22;;;;;;;2.53;0.90;;;;;;;14.88;100.00;101034.78;5014414;28;20080;-65
2023/07/18 05:55:50;;;;;;;1.20;0.70;;;;;;;15.01;100.00;101027.94;5029859;28;20046;-65
2023/07/18 05:58:17;;;;;;;2.25;0.88;;;;;;;15.13;100.00;101044.91;5029577;28;20050;-65
2023/07/18 06:00:44;;;;;;;2.08;0.80;;;;;;;15.10;100.00;101027.47;5028512;28;20041;-65
2023/07/18 06:03:10;;;;;;;3.10;0.88;;;;;;;15.17;100.00;101042.06;5026658;28;20053;-64
2023/07/18 06:05:37;;;;;;;2.53;0.80;;;;;;;14.99;100.00;101045.63;5018702;28;20459;-64
2023/07/18 06:08:05;;;;;;;3.53;1.00;;;;;;;14.96;100.00;101037.88;5018440;28;20048;-64
2023/07/18 06:10:31;;;;;;;1.88;0.80;;;;;;;15.18;100.00;101035.00;5012253;28;20077;-64
2023/07/18 06:12:58;;;;;;;1.13;0.70;;;;;;;15.40;100.00;101041.78;5011237;28;20042;-65
2023/07/18 06:15:25;;;;;;;1.95;0.70;;;;;;;15.38;100.00;101047.97;5008453;28;20084;-64
2023/07/18 06:17:52;;;;;;;2.05;0.75;;;;;;;15.31;100.00;101051.00;5011852;28;20511;-64
2023/07/18 06:20:20;;;;;;;2.05;0.82;;;;;;;15.55;100.00;101038.31;5010137;28;20112;-64
2023/07/18 06:22:47;;;;;;;1.88;0.85;;;;;;;15.50;100.00;101050.91;5014434;28;20248;-64
2023/07/18 06:25:15;;;;;;;3.60;1.15;;;;;;;15.41;100.00;101043.47;5017301;28;20484;-65
2023/07/18 06:27:42;;;;;;;2.08;0.70;;;;;;;15.41;100.00;101031.13;5013423;28;20503;-64
2023/07/18 06:30:09;;;;;;;2.88;0.75;;;;;;;15.42;100.00;101048.66;5012928;28;20050;-65
2023/07/18 06:32:36;;;;;;;3.13;1.08;;;;;;;15.27;100.00;101052.13;5015388;28;20129;-64
2023/07/18 06:35:05;;;;;;;4.60;1.00;;;;;;;15.07;100.00;101043.47;5012308;28;20062;-65
2023/07/18 06:37:48;;;;;;;2.67;1.02;;;;;;;14.86;100.00;101053.31;5015121;28;20056;-65
2023/07/18 06:40:15;;;;;;;3.90;1.10;;;;;;;14.57;100.00;101036.28;5019886;28;20129;-63
2023/07/18 06:42:42;;;;;;;2.08;0.90;;;;;;;14.48;100.00;101048.13;5016179;28;20081;-64
2023/07/18 06:45:09;;;;;;;4.43;0.98;;;;;;;14.78;100.00;101052.84;5017771;28;20085;-64
2023/07/18 06:47:36;;;;;;;1.75;0.80;;;;;;;15.15;100.00;101049.16;4998333;28;20046;-64
2023/07/18 06:50:03;;;;;;;1.75;0.80;;;;;;;15.46;100.00;101041.47;4999180;28;20473;-64
2023/07/18 06:52:30;;;;;;;2.60;0.95;;;;;;;15.48;100.00;101055.41;5010216;28;20046;-64
2023/07/18 06:55:01;;;;;;;5.25;1.10;;;;;;;15.41;100.00;101046.97;5013671;28;20092;-64
2023/07/18 06:57:28;;;;;;;2.40;0.90;;;;;;;15.22;100.00;101046.22;5013038;28;20060;-64
2023/07/18 06:59:55;;;;;;;2.85;0.93;;;;;;;14.94;100.00;101037.09;5012680;28;20432;-64
2023/07/18 07:02:21;;;;;;;3.03;1.20;;;;;;;14.99;100.00;101058.81;5014910;28;20049;-64
2023/07/18 07:04:48;;;;;;;1.52;0.80;;;;;;;15.23;100.00;101053.19;5009637;28;20128;-64
2023/07/18 07:07:15;;;;;;;1.80;0.80;;;;;;;15.15;100.00;101043.06;5022158;28;20050;-64
2023/07/18 07:09:41;;;;;;;2.97;0.95;;;;;;;15.29;100.00;101044.97;5022275;28;20073;-64
2023/07/18 07:12:08;;;;;;;4.13;1.00;;;;;;;15.43;100.00;101047.72;5022330;28;20057;-65
2023/07/18 07:14:44;;;;;;;4.80;0.93;;;;;;;15.61;100.00;101050.34;5026002;28;20053;-65
2023/07/18 07:17:11;;;;;;;4.13;1.13;;;;;;;15.82;100.00;101051.84;5022260;28;20052;-65
2023/07/18 07:19:39;;;;;;;4.53;1.02;;;;;;;16.43;100.00;101057.28;5023337;28;20049;-64
2023/07/18 07:22:06;;;;;;;2.85;1.00;;;;;;;16.96;100.00;101044.53;5032246;28;20061;-65
2023/07/18 07:24:32;;;;;;;5.32;0.95;;;;;;;17.98;100.00;101065.69;5032302;28;20872;-65
2023/07/18 07:26:59;;;;;;;1.92;0.80;;;;;;;18.37;100.00;101062.25;5014363;28;20418;-65
2023/07/18 07:29:26;;;;;;;2.13;0.80;;;;;;;19.05;100.00;101055.16;5024847;28;20128;-65
2023/07/18 07:31:53;;;;;;;1.67;0.80;;;;;;;19.41;100.00;101061.53;5027279;28;20060;-64
2023/07/18 07:34:20;;;;;;;2.70;0.73;;;;;;;19.69;100.00;101062.25;5021397;28;20049;-64
2023/07/18 07:36:46;;;;;;;3.17;0.80;;;;;;;19.45;100.00;101062.16;5021136;28;20403;-64
2023/07/18 07:39:13;;;;;;;1.85;0.80;;;;;;;19.61;100.00;101062.78;5020511;28;20402;-64
2023/07/18 07:41:40;;;;;;;0.80;0.50;;;;;;;20.05;100.00;101063.25;5029123;28;20046;-64
2023/07/18 07:44:07;;;;;;;1.10;0.60;;;;;;;19.77;100.00;101046.63;5029742;28;20406;-64
2023/07/18 07:46:34;;;;;;;2.33;0.70;;;;;;;19.71;100.00;101061.16;5030292;28;20068;-64
2023/07/18 07:49:01;;;;;;;3.58;0.80;;;;;;;20.31;100.00;101072.00;5032922;28;20467;-64
2023/07/18 07:51:31;;;;;;;2.95;0.70;;;;;;;20.76;100.00;101050.94;5025851;28;20128;-64
2023/07/18 07:53:58;;;;;;;1.95;0.70;;;;;;;20.97;100.00;101058.25;5032765;28;20107;-64
2023/07/18 07:56:25;;;;;;;2.67;0.80;;;;;;;20.59;100.00;101059.28;5030433;28;20115;-64
2023/07/18 07:58:52;;;;;;;2.75;0.77;;;;;;;20.71;100.00;101049.59;5032023;28;20077;-64
2023/07/18 08:01:36;;;;;;;2.72;0.80;;;;;;;20.56;100.00;101060.38;5030754;28;20103;-65
2023/07/18 08:04:03;;;;;;;1.38;0.70;;;;;;;20.96;100.00;101059.22;5032072;28;20396;-65
2023/07/18 08:06:30;;;;;;;2.78;1.00;;;;;;;20.86;100.00;101053.75;5030725;28;20137;-64
2023/07/18 08:08:57;;;;;;;3.70;0.70;;;;;;;21.28;100.00;101061.22;5031637;28;20061;-64
2023/07/18 08:11:24;;;;;;;1.33;0.60;;;;;;;20.65;100.00;101065.03;5006406;28;20050;-65
2023/07/18 08:13:53;;;;;;;2.78;0.80;;;;;;;19.35;100.00;101053.97;5025124;28;20057;-64
2023/07/18 08:16:20;;;;;;;0.90;0.60;;;;;;;19.65;100.00;101043.00;5029854;28;20059;-65
2023/07/18 08:18:47;;;;;;;1.17;0.65;;;;;;;20.25;100.00;101048.50;5013433;28;20049;-64
2023/07/18 08:21:14;;;;;;;4.80;0.88;;;;;;;19.84;100.00;101055.03;5022321;28;20049;-65
2023/07/18 08:23:41;;;;;;;2.17;0.80;;;;;;;20.63;100.00;101059.00;5030732;28;20152;-65
2023/07/18 08:26:07;;;;;;;2.70;0.80;;;;;;;20.00;100.00;101050.28;5030985;28;20052;-65
2023/07/18 08:28:34;;;;;;;3.47;0.90;;;;;;;20.81;100.00;101047.94;5030154;28;20053;-64
2023/07/18 08:31:04;;;;;;;2.08;0.57;;;;;;;20.62;100.00;101040.47;5024716;28;20559;-65
2023/07/18 08:33:31;;;;;;;2.85;0.60;;;;;;;20.25;100.00;101051.16;5030893;28;20041;-64
2023/07/18 08:35:58;;;;;;;0.70;0.52;;;;;;;21.00;100.00;101048.22;5030113;28;20064;-65
2023/07/18 08:38:25;;;;;;;1.75;0.63;;;;;;;21.33;100.00;101054.53;5030120;28;20049;-67
2023/07/18 08:40:52;;;;;;;1.40;0.60;;;;;;;21.10;100.00;101040.38;5039819;28;20401;-67
2023/07/18 08:43:20;;;;;;;4.20;0.77;;;;;;;20.99;100.00;101054.50;5033298;28;20136;-67
2023/07/18 08:45:47;;;;;;;1.17;0.65;;;;;;;21.25;100.00;101041.00;5031576;28;20115;-68
2023/07/18 08:48:14;;;;;;;1.80;0.70;;;;;;;20.90;100.00;101052.56;5044344;28;20057;-67
2023/07/18 08:50:42;;;;;;;0.85;0.50;;;;;;;21.00;100.00;101052.69;5028059;28;21542;-67
2023/07/18 08:53:09;;;;;;;2.15;0.70;;;;;;;20.74;100.00;101042.22;5032543;28;20067;-67
2023/07/18 08:55:36;;;;;;;1.95;0.75;;;;;;;20.57;100.00;101048.75;5029796;28;20046;-67
2023/07/18 08:58:05;;;;;;;1.58;0.63;;;;;;;20.33;100.00;101039.94;5030004;28;20528;-68
2023/07/18 09:00:31;;;;;;;1.35;0.60;;;;;;;20.70;100.00;101042.56;5010994;28;20076;-68
2023/07/18 09:02:58;;;;;;;2.60;0.70;;;;;;;20.39;100.00;101055.47;5027573;28;20073;-68
2023/07/18 09:05:36;;;;;;;0.73;0.50;;;;;;;20.53;100.00;101057.94;5030226;28;20463;-68
2023/07/18 09:08:04;;;;;;;3.50;0.93;;;;;;;20.50;98.88;101047.53;5030406;28;20919;-68
2023/07/18 09:10:32;;;;;;;1.33;0.52;;;;;;;20.61;100.00;101050.28;5036439;28;20383;-68
2023/07/18 09:13:02;;;;;;;2.70;0.60;;;;;;;20.57;100.00;101053.25;5031246;28;20063;-67
2023/07/18 09:15:29;;;;;;;3.30;0.80;;;;;;;20.57;100.00;101059.41;5032817;28;20141;-68
2023/07/18 09:18:05;;;;;;;5.95;0.90;;;;;;;20.41;100.00;101048.22;5033090;28;20080;-68
2023/07/18 09:20:33;;;;;;;2.50;0.73;;;;;;;20.01;100.00;101054.66;5029514;28;20055;-69
2023/07/18 09:23:03;;;;;;;3.80;0.80;;;;;;;20.04;100.00;101049.13;5018737;28;20087;-68
2023/07/18 09:25:30;;;;;;;3.50;0.77;;;;;;;19.54;100.00;101053.53;5025253;28;20050;-69
2023/07/18 09:27:58;;;;;;;2.58;0.77;;;;;;;18.38;100.00;101042.75;5024686;28;20589;-69
2023/07/18 09:30:28;;;;;;;2.63;0.77;;;;;;;18.46;100.00;101050.19;5033410;28;20048;-69
2023/07/18 09:32:55;;;;;;;3.08;0.93;;;;;;;18.32;100.00;101050.25;5025947;28;20060;-68
2023/07/18 09:35:26;;;;;;;3.80;0.80;;;;;;;18.58;100.00;101046.75;5016147;28;20053;-68
2023/07/18 09:37:53;;;;;;;4.93;1.00;;;;;;;18.91;100.00;101040.16;5030019;28;20050;-69
2023/07/18 09:40:20;;;;;;;2.95;0.82;;;;;;;19.45;100.00;101049.72;5027053;28;20046;-68
2023/07/18 09:42:49;;;;;;;2.20;0.68;;;;;;;18.65;100.00;101047.19;5029446;28;20503;-68
2023/07/18 09:45:17;;;;;;;2.75;0.80;;;;;;;18.84;100.00;101044.19;5030439;28;20049;-69
2023/07/18 09:47:44;;;;;;;3.95;0.80;;;;;;;19.47;100.00;101039.84;5012626;28;20045;-68
2023/07/18 09:50:12;;;;;;;3.08;0.90;;;;;;;18.35;100.00;101037.66;5022612;28;20055;-66
2023/07/18 09:52:46;;;;;;;3.15;0.77;;;;;;;18.25;100.00;101047.16;5014843;28;20050;-66
2023/07/18 09:55:14;;;;;;;1.70;0.70;;;;;;;18.02;100.00;101044.22;5028552;28;20060;-66
2023/07/18 09:57:42;;;;;;;5.43;1.08;;;;;;;17.94;100.00;101037.69;5028617;28;20116;-66
2023/07/18 10:00:16;;;;;;;2.25;0.77;;;;;;;18.13;100.00;101032.03;5021063;28;20065;-66
2023/07/18 10:02:44;;;;;;;2.97;0.70;;;;;;;18.31;100.00;101036.16;5029141;28;20045;-66
2023/07/18 10:05:11;;;;;;;4.20;0.80;;;;;;;18.11;100.00;101042.72;5029031;28;20487;-66
2023/07/18 10:07:39;;;;;;;4.25;0.80;;;;;;;18.19;100.00;101036.97;5029168;28;20050;-66
2023/07/18 10:10:10;;;;;;;2.75;0.80;;;;;;;17.92;100.00;101036.91;5026883;28;20133;-66
2023/07/18 10:12:56;;;;;;;4.82;1.20;;;;;;;17.83;100.00;101030.41;5028490;28;20133;-66
2023/07/18 10:15:23;;;;;;;3.20;0.75;;;;;;;18.17;100.00;101018.50;5029040;28;20057;-66
2023/07/18 10:17:50;;;;;;;3.22;0.80;;;;;;;18.14;100.00;101023.16;5029203;28;20053;-66
2023/07/18 10:20:24;;;;;;;1.52;0.73;;;;;;;18.44;100.00;101032.72;5020533;28;20563;-66
2023/07/18 10:22:59;;;;;;;2.33;0.75;;;;;;;18.18;100.00;101025.53;5026559;28;20527;-66
2023/07/18 10:25:28;;;;;;;4.82;0.77;;;;;;;17.96;100.00;101019.91;5011260;28;20480;-65
2023/07/18 10:27:57;;;;;;;4.45;0.90;;;;;;;18.32;100.00;101021.09;5029995;28;20045;-65
2023/07/18 10:30:24;;;;;;;4.18;1.00;;;;;;;18.41;100.00;101033.75;5028933;28;20495;-65
2023/07/18 10:32:56;;;;;;;2.00;0.80;;;;;;;18.43;100.00;101015.94;5030451;28;20414;-65
2023/07/18 10:35:26;;;;;;;2.35;0.82;;;;;;;18.09;100.00;101027.91;5030051;28;20050;-65
2023/07/18 10:37:55;;;;;;;2.35;0.70;;;;;;;17.85;100.00;101020.56;5019189;28;20081;-65
2023/07/18 10:40:40;;;;;;;2.53;0.80;;;;;;;18.03;100.00;101014.09;5018468;28;20072;-65
2023/07/18 10:43:15;;;;;;;5.90;0.90;;;;;;;17.96;100.00;100990.75;5022052;28;20060;-64
2023/07/18 10:45:43;;;;;;;3.38;0.90;;;;;;;17.86;100.00;101002.88;5029822;28;20053;-65
2023/07/18 10:48:10;;;;;;;2.40;0.88;;;;;;;18.11;100.00;101012.75;5030190;28;20046;-65
2023/07/18 10:50:37;;;;;;;5.28;0.95;;;;;;;17.79;100.00;101012.97;5028763;28;20073;-65
2023/07/18 10:53:03;;;;;;;3.33;0.90;;;;;;;17.99;100.00;101009.13;5032556;28;20045;-62
2023/07/18 10:55:31;;;;;;;3.72;0.93;;;;;;;17.73;100.00;101014.22;5016908;28;20065;-63
2023/07/18 10:57:58;;;;;;;2.85;0.90;;;;;;;18.21;100.00;101003.25;5034610;28;20056;-63
2023/07/18 11:00:24;;;;;;;3.22;0.90;;;;;;;18.28;100.00;101003.72;5024649;28;20404;-63
2023/07/18 11:02:51;;;;;;;4.03;1.00;;;;;;;18.16;100.00;100998.25;5021914;28;20049;-63
2023/07/18 11:05:18;;;;;;;2.67;0.80;;;;;;;18.31;100.00;100998.19;5034184;28;20422;-63
2023/07/18 11:07:48;;;;;;;2.97;0.90;;;;;;;18.91;100.00;101016.28;5033817;28;20048;-63
2023/07/18 11:10:15;;;;;;;3.47;0.90;;;;;;;18.51;100.00;101004.84;5032980;28;20525;-64
2023/07/18 11:12:43;;;;;;;4.50;1.00;;;;;;;18.82;100.00;101008.09;5033327;28;20394;-63
2023/07/18 11:15:11;;;;;;;2.40;0.90;;;;;;;18.65;100.00;101009.22;5033813;28;20475;-64
2023/07/18 11:17:38;;;;;;;4.72;0.88;;;;;;;18.64;100.00;101003.03;5033900;28;20053;-64
2023/07/18 11:20:06;;;;;;;1.20;0.75;;;;;;;18.41;100.00;101007.22;5025712;28;20050;-63